^^
Station Historical Data
Daily Summary for April 7, 2019 Units:  Metric    English   Both
« Previous Day
Next Day »
Daily Weekly Monthly Yearly Custom
  High: Low: Average:
Temperature: 19.2 °C 4.3 °C 11.7 °C
Dew Point: 5.7 °C -2 °C 2 °C
Humidity: 97% 25% 59%
Wind Speed: 49.9km/h 0km/h 17.2km/h
Wind Gust: 56.3km/h - -
Wind- - SW
Pressure: 1008 hPa 1003.6 hPa -
Precipitation: 0.51 mm    
Historical Graphs
 
 
Tabular Data for April 7, 2019
Time Temperature Dew Point Pressure Wind Wind Speed Wind Gust Humidity Rainfall Rate (Hourly) solar Conditions
00:04 6.3 °C 5.7 °C 1006.3 hPa ENE 4.8 km/h 8 km/h 96% 0.25 mm 0.00 W/m2
00:09 6.2 °C 5.6 °C 1006 hPa East 4.8 km/h 8 km/h 96% 0.25 mm 0.00 W/m2
00:14 6.2 °C 5.6 °C 1006 hPa East 4.8 km/h 8 km/h 96% 0.25 mm 0.00 W/m2
00:19 6.2 °C 5.6 °C 1006 hPa East 4.8 km/h 8 km/h 96% 0.25 mm 0.00 W/m2
00:24 6.2 °C 5.6 °C 1006 hPa East 4.8 km/h 8 km/h 96% 0.25 mm 0.00 W/m2
00:29 6.2 °C 5.6 °C 1005.6 hPa East 4.8 km/h 8 km/h 96% 0.25 mm 0.00 W/m2
00:34 6.2 °C 5.6 °C 1006 hPa East 4.8 km/h 8 km/h 96% 0.25 mm 0.00 W/m2
00:39 6.2 °C 5.6 °C 1005.6 hPa ESE 4.8 km/h 8 km/h 96% 0.25 mm 0.00 W/m2
00:44 6.2 °C 5.6 °C 1005.6 hPa East 4.8 km/h 9.7 km/h 96% 0.25 mm 0.00 W/m2
00:49 6.2 °C 5.6 °C 1005.6 hPa ESE 8 km/h 9.7 km/h 96% 0.25 mm 0.00 W/m2
00:54 6.2 °C 5.6 °C 1005.6 hPa ESE 4.8 km/h 9.7 km/h 96% 0.25 mm 0.00 W/m2
00:59 6.2 °C 5.6 °C 1005.6 hPa East 8 km/h 9.7 km/h 96% 0.25 mm 0.00 W/m2
01:04 6.2 °C 5.6 °C 1005.6 hPa ESE 4.8 km/h 9.7 km/h 96% 0 mm 0.00 W/m2
01:09 6.2 °C 5.6 °C 1005.6 hPa East 9.7 km/h 9.7 km/h 96% 0 mm 0.00 W/m2
01:14 6.2 °C 5.6 °C 1005.6 hPa ESE 4.8 km/h 11.3 km/h 96% 0 mm 0.00 W/m2
01:19 6.2 °C 5.6 °C 1005.6 hPa ESE 4.8 km/h 11.3 km/h 96% 0 mm 0.00 W/m2
01:24 6.2 °C 5.6 °C 1005.6 hPa East 4.8 km/h 11.3 km/h 96% 0 mm 0.00 W/m2
01:29 6.2 °C 5.6 °C 1006 hPa East 3.2 km/h 11.3 km/h 96% 0 mm 0.00 W/m2
01:34 6.2 °C 5.6 °C 1005.6 hPa East 4.8 km/h 9.7 km/h 96% 0 mm 0.00 W/m2
01:39 6.1 °C 5.7 °C 1006 hPa East 3.2 km/h 9.7 km/h 97% 0 mm 0.00 W/m2
01:44 6.1 °C 5.7 °C 1006 hPa East 4.8 km/h 9.7 km/h 97% 0 mm 0.00 W/m2
01:49 6.1 °C 5.7 °C 1006 hPa ESE 4.8 km/h 8 km/h 97% 0 mm 0.00 W/m2
01:54 6.1 °C 5.6 °C 1006 hPa ESE 1.6 km/h 8 km/h 97% 0 mm 0.00 W/m2
01:59 6.1 °C 5.6 °C 1006 hPa ESE 1.6 km/h 4.8 km/h 97% 0 mm 0.00 W/m2
02:04 6.1 °C 5.6 °C 1006 hPa ESE 4.8 km/h 4.8 km/h 97% 0 mm 0.00 W/m2
02:09 6.1 °C 5.6 °C 1006 hPa East 8 km/h 8 km/h 97% 0 mm 0.00 W/m2
02:14 6.1 °C 5.6 °C 1006 hPa East 3.2 km/h 8 km/h 97% 0 mm 0.00 W/m2
02:19 6.1 °C 5.6 °C 1006 hPa East 3.2 km/h 8 km/h 97% 0 mm 0.00 W/m2
02:24 5.9 °C 5.5 °C 1006 hPa East 4.8 km/h 4.8 km/h 97% 0 mm 0.00 W/m2
02:29 5.9 °C 5.3 °C 1006 hPa Calm   4.8 km/h 96% 0 mm 0.00 W/m2
02:34 5.9 °C 5.3 °C 1005.6 hPa Calm   4.8 km/h 96% 0 mm 0.00 W/m2
02:39 5.9 °C 5.3 °C 1006 hPa West 4.8 km/h 8 km/h 96% 0 mm 0.00 W/m2
02:44 5.9 °C 5.3 °C 1006 hPa West 4.8 km/h 8 km/h 96% 0 mm 0.00 W/m2
02:49 5.9 °C 5.4 °C 1006 hPa SW 4.8 km/h 6.4 km/h 97% 0 mm 0.00 W/m2
02:54 5.9 °C 5.4 °C 1006 hPa SW 1.6 km/h 6.4 km/h 97% 0 mm 0.00 W/m2
02:59 5.9 °C 5.4 °C 1006 hPa SW 4.8 km/h 6.4 km/h 97% 0 mm 0.00 W/m2
03:04 5.9 °C 5.5 °C 1006 hPa WSW 8 km/h 9.7 km/h 97% 0 mm 0.00 W/m2
03:09 5.8 °C 5.4 °C 1006 hPa WSW 6.4 km/h 9.7 km/h 97% 0 mm 0.00 W/m2
03:14 5.8 °C 5.4 °C 1006 hPa West 9.7 km/h 11.3 km/h 97% 0 mm 0.00 W/m2
03:19 5.9 °C 5.4 °C 1006 hPa West 11.3 km/h 11.3 km/h 97% 0 mm 0.00 W/m2
03:24 5.9 °C 5.4 °C 1006 hPa West 11.3 km/h 14.5 km/h 97% 0 mm 0.00 W/m2
03:29 5.9 °C 5.4 °C 1005.6 hPa WNW 11.3 km/h 16.1 km/h 97% 0 mm 0.00 W/m2
03:34 5.8 °C 5.4 °C 1005.6 hPa West 8 km/h 16.1 km/h 97% 0 mm 0.00 W/m2
03:39 5.7 °C 5.3 °C 1005.6 hPa West 11.3 km/h 14.5 km/h 97% 0 mm 0.00 W/m2
03:44 5.7 °C 5.2 °C 1005.6 hPa West 9.7 km/h 14.5 km/h 97% 0 mm 0.00 W/m2
03:49 5.6 °C 5.1 °C 1005.6 hPa West 8 km/h 14.5 km/h 97% 0 mm 0.00 W/m2
03:54 5.5 °C 5.1 °C 1006 hPa West 12.9 km/h 17.7 km/h 97% 0 mm 0.00 W/m2
03:59 5.4 °C 5 °C 1006.3 hPa West 17.7 km/h 20.9 km/h 97% 0 mm 0.00 W/m2
04:04 5.5 °C 5.1 °C 1006.3 hPa WSW 14.5 km/h 20.9 km/h 97% 0 mm 0.00 W/m2
04:09 5.4 °C 5 °C 1006.7 hPa WSW 14.5 km/h 20.9 km/h 97% 0 mm 0.00 W/m2
04:14 5.3 °C 4.9 °C 1007 hPa West 22.5 km/h 30.6 km/h 97% 0 mm 0.00 W/m2
04:19 5.3 °C 4.9 °C 1007 hPa WSW 20.9 km/h 33.8 km/h 97% 0 mm 0.00 W/m2
04:24 5.3 °C 4.9 °C 1007.3 hPa WNW 25.7 km/h 33.8 km/h 97% 0 mm 0.00 W/m2
04:29 5.3 °C 4.8 °C 1007.3 hPa WSW 35.4 km/h 35.4 km/h 97% 0.25 mm 0.00 W/m2
04:34 5.2 °C 4.8 °C 1007.3 hPa West 22.5 km/h 35.4 km/h 97% 0.25 mm 0.00 W/m2
04:39 5.1 °C 4.6 °C 1007.3 hPa West 16.1 km/h 33.8 km/h 97% 0.25 mm 0.00 W/m2
04:44 4.8 °C 4.3 °C 1007 hPa West 16.1 km/h 33.8 km/h 97% 0.25 mm 0.00 W/m2
04:49 4.6 °C 4.1 °C 1007 hPa West 12.9 km/h 25.7 km/h 97% 0.25 mm 0.00 W/m2
04:54 4.4 °C 4 °C 1007.3 hPa West 11.3 km/h 19.3 km/h 97% 0.25 mm 0.00 W/m2
04:59 4.4 °C 3.9 °C 1007.3 hPa West 11.3 km/h 17.7 km/h 97% 0.25 mm 0.00 W/m2
05:04 4.3 °C 3.9 °C 1007.3 hPa West 9.7 km/h 14.5 km/h 97% 0.25 mm 0.00 W/m2
05:09 4.3 °C 3.9 °C 1007.3 hPa WSW 11.3 km/h 14.5 km/h 97% 0.25 mm 0.00 W/m2
05:14 4.3 °C 3.8 °C 1007.3 hPa West 11.3 km/h 14.5 km/h 97% 0.25 mm 0.00 W/m2
05:19 4.4 °C 3.9 °C 1007.3 hPa West 11.3 km/h 12.9 km/h 97% 0.25 mm 0.00 W/m2
05:24 4.6 °C 4.1 °C 1007.3 hPa WNW 4.8 km/h 12.9 km/h 97% 0.25 mm 0.00 W/m2
05:29 4.6 °C 4.2 °C 1007.3 hPa West 4.8 km/h 11.3 km/h 97% 0 mm 0.00 W/m2
05:34 4.7 °C 4.2 °C 1007.3 hPa West 6.4 km/h 11.3 km/h 97% 0 mm 0.00 W/m2
05:39 4.8 °C 4.3 °C 1007.3 hPa West 6.4 km/h 11.3 km/h 97% 0 mm 0.00 W/m2
05:44 4.8 °C 4.4 °C 1007.3 hPa WSW 8 km/h 11.3 km/h 97% 0 mm 0.00 W/m2
05:49 4.9 °C 4.5 °C 1007.3 hPa West 11.3 km/h 14.5 km/h 97% 0 mm 0.00 W/m2
05:54 5.1 °C 4.6 °C 1007.3 hPa West 11.3 km/h 14.5 km/h 97% 0 mm 0.00 W/m2
05:59 5.3 °C 4.8 °C 1007 hPa WNW 11.3 km/h 17.7 km/h 97% 0 mm 0.00 W/m2
06:04 5.4 °C 5 °C 1007 hPa West 11.3 km/h 17.7 km/h 97% 0 mm 0.00 W/m2
06:09 5.5 °C 5.1 °C 1007 hPa WNW 8 km/h 16.1 km/h 97% 0 mm 0.00 W/m2
06:14 5.6 °C 5.1 °C 1007 hPa WNW 9.7 km/h 16.1 km/h 97% 0 mm 0.00 W/m2
06:19 5.6 °C 5.1 °C 1007 hPa WNW 9.7 km/h 16.1 km/h 97% 0 mm 0.00 W/m2
06:24 5.4 °C 4.9 °C 1006.7 hPa WNW 9.7 km/h 16.1 km/h 97% 0 mm 0.00 W/m2
06:29 5.3 °C 4.8 °C 1006.7 hPa West 6.4 km/h 11.3 km/h 97% 0 mm 0.00 W/m2
06:34 5.3 °C 4.9 °C 1006.7 hPa NW 9.7 km/h 12.9 km/h 97% 0 mm 0.00 W/m2
06:39 5.6 °C 5.1 °C 1006.7 hPa West 8 km/h 12.9 km/h 97% 0 mm 0.00 W/m2
06:44 5.6 °C 5.2 °C 1007 hPa West 6.4 km/h 11.3 km/h 97% 0 mm 0.00 W/m2
06:49 5.7 °C 5.2 °C 1007 hPa WNW 9.7 km/h 11.3 km/h 97% 0 mm 0.00 W/m2
06:54 5.8 °C 5.4 °C 1007 hPa NW 8 km/h 11.3 km/h 97% 0 mm 0.00 W/m2
06:59 5.7 °C 5.3 °C 1007.3 hPa NW 8 km/h 11.3 km/h 97% 0 mm 0.00 W/m2
07:04 5.7 °C 5.3 °C 1007.3 hPa NW 8 km/h 11.3 km/h 97% 0 mm 0.00 W/m2
07:09 5.8 °C 5.2 °C 1007.3 hPa WNW 11.3 km/h 11.3 km/h 96% 0 mm 0.00 W/m2
07:14 5.9 °C 5.3 °C 1007.3 hPa West 8 km/h 12.9 km/h 96% 0 mm 0.00 W/m2
07:19 5.9 °C 5.2 °C 1007 hPa West 6.4 km/h 12.9 km/h 95% 0 mm 5.00 W/m2
07:24 5.9 °C 5.2 °C 1007.3 hPa West 8 km/h 11.3 km/h 95% 0 mm 7.00 W/m2
07:29 5.9 °C 5.2 °C 1007 hPa West 4.8 km/h 11.3 km/h 95% 0 mm 11.00 W/m2
07:34 5.8 °C 4.9 °C 1007.3 hPa West 8 km/h 9.7 km/h 94% 0 mm 14.00 W/m2
07:39 5.8 °C 4.9 °C 1007.3 hPa West 8 km/h 11.3 km/h 94% 0 mm 19.00 W/m2
07:44 5.9 °C 5 °C 1007.3 hPa West 11.3 km/h 11.3 km/h 94% 0 mm 23.00 W/m2
07:49 5.8 °C 4.8 °C 1007.3 hPa West 8 km/h 14.5 km/h 93% 0 mm 23.00 W/m2
07:54 6.1 °C 5 °C 1007.3 hPa West 12.9 km/h 16.1 km/h 93% 0 mm 26.00 W/m2
07:59 6.3 °C 5.1 °C 1007.3 hPa West 6.4 km/h 16.1 km/h 92% 0 mm 32.00 W/m2
08:04 6.5 °C 5 °C 1007.7 hPa West 12.9 km/h 14.5 km/h 90% 0 mm 37.00 W/m2
08:09 6.7 °C 5 °C 1007.7 hPa West 14.5 km/h 16.1 km/h 89% 0 mm 44.00 W/m2
08:14 6.8 °C 4.9 °C 1007.7 hPa WSW 14.5 km/h 17.7 km/h 88% 0 mm 60.00 W/m2
08:19 6.9 °C 4.9 °C 1007.7 hPa West 12.9 km/h 19.3 km/h 87% 0 mm 79.00 W/m2
08:24 7.2 °C 4.9 °C 1008 hPa West 14.5 km/h 19.3 km/h 85% 0 mm 83.00 W/m2
08:29 7.6 °C 4.9 °C 1008 hPa WNW 14.5 km/h 22.5 km/h 83% 0 mm 84.00 W/m2
08:34 8.3 °C 4.7 °C 1008 hPa WNW 16.1 km/h 24.1 km/h 78% 0 mm 148.00 W/m2
08:39 8.8 °C 4.7 °C 1008 hPa WNW 20.9 km/h 25.7 km/h 75% 0 mm 163.00 W/m2
08:44 9.2 °C 4.4 °C 1008 hPa West 16.1 km/h 27.4 km/h 72% 0 mm 183.00 W/m2
08:49 9.2 °C 4.1 °C 1008 hPa West 20.9 km/h 27.4 km/h 70% 0 mm 69.00 W/m2
08:54 9.1 °C 4.3 °C 1008 hPa West 14.5 km/h 25.7 km/h 72% 0 mm 243.00 W/m2
08:59 9.3 °C 4.7 °C 1008 hPa West 16.1 km/h 24.1 km/h 73% 0 mm 271.00 W/m2
09:04 9.6 °C 4.8 °C 1008 hPa WNW 16.1 km/h 24.1 km/h 72% 0 mm 287.00 W/m2
09:09 9.7 °C 4.5 °C 1008 hPa West 22.5 km/h 24.1 km/h 70% 0 mm 297.00 W/m2
09:14 9.8 °C 4.2 °C 1007.7 hPa WNW 16.1 km/h 27.4 km/h 68% 0 mm 315.00 W/m2
09:19 9.8 °C 4.2 °C 1007.7 hPa WNW 22.5 km/h 27.4 km/h 68% 0 mm 332.00 W/m2
09:24 9.9 °C 4.3 °C 1007.7 hPa West 19.3 km/h 27.4 km/h 68% 0 mm 348.00 W/m2
09:29 10.1 °C 4.2 °C 1007.7 hPa WNW 24.1 km/h 27.4 km/h 67% 0 mm 364.00 W/m2
09:34 10.3 °C 4.4 °C 1007.7 hPa West 24.1 km/h 33.8 km/h 67% 0 mm 381.00 W/m2
09:39 10.7 °C 3.7 °C 1007.7 hPa WNW 25.7 km/h 33.8 km/h 62% 0 mm 399.00 W/m2
09:44 10.8 °C 3.4 °C 1007.7 hPa WNW 12.9 km/h 35.4 km/h 60% 0 mm 413.00 W/m2
09:49 11.1 °C 3.3 °C 1007.7 hPa WNW 29 km/h 35.4 km/h 59% 0 mm 424.00 W/m2
09:54 11.2 °C 3.2 °C 1007.7 hPa WNW 37 km/h 40.2 km/h 58% 0 mm 439.00 W/m2
09:59 11.2 °C 3 °C 1007.7 hPa WNW 27.4 km/h 40.2 km/h 57% 0 mm 454.00 W/m2
10:04 11.5 °C 3 °C 1007.3 hPa WNW 19.3 km/h 38.6 km/h 56% 0 mm 468.00 W/m2
10:09 11.8 °C 2.8 °C 1007.3 hPa WNW 25.7 km/h 33.8 km/h 54% 0 mm 483.00 W/m2
10:14 11.9 °C 2.3 °C 1007.7 hPa WNW 27.4 km/h 43.5 km/h 52% 0 mm 497.00 W/m2
10:19 12.1 °C 2.5 °C 1007.3 hPa WNW 20.9 km/h 43.5 km/h 52% 0 mm 508.00 W/m2
10:24 12.2 °C 2.4 °C 1007.3 hPa WNW 25.7 km/h 38.6 km/h 51% 0 mm 522.00 W/m2
10:29 12.5 °C 2.6 °C 1007.3 hPa WNW 25.7 km/h 38.6 km/h 51% 0 mm 524.00 W/m2
10:34 12.8 °C 2.3 °C 1007.3 hPa WNW 29 km/h 37 km/h 49% 0 mm 515.00 W/m2
10:39 12.9 °C 1.9 °C 1007.3 hPa WNW 24.1 km/h 37 km/h 47% 0 mm 503.00 W/m2
10:44 13.2 °C 2.1 °C 1007.3 hPa NW 16.1 km/h 43.5 km/h 47% 0 mm 489.00 W/m2
10:49 13.3 °C 1.9 °C 1007.3 hPa NW 27.4 km/h 43.5 km/h 46% 0 mm 476.00 W/m2
10:54 13.3 °C 1.6 °C 1007.3 hPa West 24.1 km/h 37 km/h 45% 0 mm 475.00 W/m2
10:59 13.7 °C 1.7 °C 1007.3 hPa WNW 30.6 km/h 37 km/h 44% 0 mm 482.00 W/m2
11:04 13.8 °C 1.8 °C 1007 hPa West 35.4 km/h 35.4 km/h 44% 0 mm 503.00 W/m2
11:09 13.8 °C 0.7 °C 1007 hPa West 27.4 km/h 38.6 km/h 41% 0 mm 519.00 W/m2
11:14 14.1 °C 1.3 °C 1007.3 hPa WNW 29 km/h 38.6 km/h 42% 0 mm 503.00 W/m2
11:19 14.2 °C 1.2 °C 1007.3 hPa WNW 20.9 km/h 37 km/h 41% 0 mm 490.00 W/m2
11:24 14.2 °C 1.2 °C 1007 hPa WNW 22.5 km/h 38.6 km/h 41% 0 mm 517.00 W/m2
11:29 14.4 °C 1.3 °C 1007 hPa WNW 27.4 km/h 38.6 km/h 41% 0 mm 580.00 W/m2
11:34 14.4 °C 1 °C 1007 hPa West 29 km/h 38.6 km/h 40% 0 mm 659.00 W/m2
11:39 14.6 °C 1.2 °C 1007 hPa WNW 35.4 km/h 40.2 km/h 40% 0 mm 694.00 W/m2
11:44 14.5 °C 1.1 °C 1007 hPa WNW 22.5 km/h 40.2 km/h 40% 0 mm 703.00 W/m2
11:49 14.6 °C 1.4 °C 1007 hPa West 25.7 km/h 35.4 km/h 41% 0 mm 710.00 W/m2
11:54 14.7 °C 1.2 °C 1007 hPa WNW 30.6 km/h 33.8 km/h 40% 0 mm 717.00 W/m2
11:59 14.9 °C 1.1 °C 1007 hPa WNW 20.9 km/h 40.2 km/h 39% 0 mm 724.00 W/m2
12:04 15.1 °C 1.2 °C 1007 hPa West 27.4 km/h 40.2 km/h 39% 0 mm 735.00 W/m2
12:09 15.3 °C 1.1 °C 1006.7 hPa West 35.4 km/h 40.2 km/h 38% 0 mm 740.00 W/m2
12:14 15.2 °C 0.9 °C 1007 hPa WNW 25.7 km/h 37 km/h 38% 0 mm 751.00 W/m2
12:19 15.3 °C 1.1 °C 1007 hPa West 33.8 km/h 40.2 km/h 38% 0 mm 756.00 W/m2
12:24 15.4 °C 0.8 °C 1007 hPa WNW 29 km/h 41.8 km/h 37% 0 mm 761.00 W/m2
12:29 15.5 °C 0.5 °C 1007 hPa West 30.6 km/h 43.5 km/h 36% 0 mm 768.00 W/m2
12:34 15.8 °C -0.5 °C 1007 hPa WNW 24.1 km/h 43.5 km/h 33% 0 mm 775.00 W/m2
12:39 15.7 °C 0.3 °C 1006.7 hPa West 29 km/h 48.3 km/h 35% 0 mm 782.00 W/m2
12:44 15.9 °C 0.9 °C 1006.7 hPa WSW 40.2 km/h 48.3 km/h 36% 0 mm 786.00 W/m2
12:49 15.7 °C 0.7 °C 1006.7 hPa West 29 km/h 46.7 km/h 36% 0 mm 784.00 W/m2
12:54 15.7 °C -0.2 °C 1006.7 hPa WSW 33.8 km/h 54.7 km/h 34% 0 mm 775.00 W/m2
12:59 15.8 °C 0 °C 1006.7 hPa WSW 35.4 km/h 56.3 km/h 34% 0 mm 809.00 W/m2
13:04 15.9 °C 0.5 °C 1006.7 hPa West 45.1 km/h 56.3 km/h 35% 0 mm 812.00 W/m2
13:09 16.1 °C -0.2 °C 1006.7 hPa West 32.2 km/h 48.3 km/h 33% 0 mm 782.00 W/m2
13:14 16.1 °C -0.2 °C 1006.7 hPa West 37 km/h 48.3 km/h 33% 0 mm 828.00 W/m2
13:19 16.1 °C -0.2 °C 1006.7 hPa West 30.6 km/h 48.3 km/h 33% 0 mm 846.00 W/m2
13:24 16.2 °C 0.3 °C 1006.3 hPa West 30.6 km/h 46.7 km/h 34% 0 mm 779.00 W/m2
13:29 16.4 °C 0.1 °C 1006.3 hPa West 27.4 km/h 46.7 km/h 33% 0 mm 877.00 W/m2
13:34 16.8 °C 0 °C 1006.3 hPa West 41.8 km/h 46.7 km/h 32% 0 mm 752.00 W/m2
13:39 16.5 °C -1.2 °C 1006.3 hPa West 29 km/h 48.3 km/h 30% 0 mm 782.00 W/m2
13:44 16.6 °C -1.1 °C 1006.3 hPa WNW 22.5 km/h 54.7 km/h 30% 0 mm 824.00 W/m2
13:49 16.7 °C -1.4 °C 1006.3 hPa WNW 29 km/h 54.7 km/h 29% 0 mm 826.00 W/m2
13:54 16.8 °C -1.3 °C 1006.3 hPa WSW 25.7 km/h 48.3 km/h 29% 0 mm 826.00 W/m2
13:59 16.8 °C -0.9 °C 1006.3 hPa West 25.7 km/h 48.3 km/h 30% 0 mm 826.00 W/m2
14:04 17.3 °C -1.4 °C 1006.3 hPa West 16.1 km/h 43.5 km/h 28% 0 mm 831.00 W/m2
14:09 17.2 °C -2 °C 1006.3 hPa WNW 30.6 km/h 54.7 km/h 27% 0 mm 844.00 W/m2
14:14 16.9 °C -1.7 °C 1006 hPa WNW 46.7 km/h 54.7 km/h 28% 0 mm 780.00 W/m2
14:19 17.1 °C -1.1 °C 1006 hPa West 37 km/h 54.7 km/h 29% 0 mm 796.00 W/m2
14:24 17.2 °C -1.5 °C 1006 hPa West 37 km/h 54.7 km/h 28% 0 mm 735.00 W/m2
14:29 17.2 °C -2 °C 1006 hPa West 37 km/h 54.7 km/h 27% 0 mm 810.00 W/m2
14:34 17.4 °C -1.3 °C 1006 hPa West 45.1 km/h 48.3 km/h 28% 0 mm 814.00 W/m2
14:39 17.2 °C -1.9 °C 1006 hPa West 24.1 km/h 48.3 km/h 27% 0 mm 698.00 W/m2
14:44 17.4 °C -1.3 °C 1006 hPa WNW 37 km/h 48.3 km/h 28% 0 mm 728.00 W/m2
14:49 17.3 °C -1.9 °C 1006 hPa WSW 37 km/h 45.1 km/h 27% 0 mm 698.00 W/m2
14:54 17.3 °C -1.4 °C 1005.6 hPa WSW 30.6 km/h 43.5 km/h 28% 0 mm 682.00 W/m2
14:59 17.3 °C -1.4 °C 1006 hPa West 41.8 km/h 46.7 km/h 28% 0 mm 768.00 W/m2
15:04 17.7 °C -1.1 °C 1006 hPa WSW 37 km/h 48.3 km/h 28% 0 mm 793.00 W/m2
15:09 17.7 °C -1.6 °C 1006 hPa WSW 32.2 km/h 48.3 km/h 27% 0 mm 784.00 W/m2
15:14 18.1 °C -0.7 °C 1006 hPa West 30.6 km/h 45.1 km/h 28% 0 mm 788.00 W/m2
15:19 18.1 °C -1.8 °C 1005.6 hPa NW 29 km/h 43.5 km/h 26% 0 mm 791.00 W/m2
15:24 18.1 °C -1.3 °C 1005.6 hPa West 27.4 km/h 43.5 km/h 27% 0 mm 765.00 W/m2
15:29 18.2 °C -1.6 °C 1005.6 hPa West 33.8 km/h 45.1 km/h 26% 0 mm 775.00 W/m2
15:34 18.3 °C -1 °C 1005.6 hPa WSW 32.2 km/h 45.1 km/h 27% 0 mm 701.00 W/m2
15:39 18.3 °C -0.6 °C 1005.6 hPa West 22.5 km/h 41.8 km/h 28% 0 mm 775.00 W/m2
15:44 18.3 °C -1.1 °C 1005.6 hPa West 20.9 km/h 41.8 km/h 27% 0 mm 751.00 W/m2
15:49 17.7 °C -1.6 °C 1005.6 hPa WNW 27.4 km/h 46.7 km/h 27% 0 mm 666.00 W/m2
15:54 17.9 °C -1.3 °C 1005.6 hPa West 14.5 km/h 46.7 km/h 27% 0 mm 703.00 W/m2
15:59 18.1 °C -1.2 °C 1005.6 hPa WNW 24.1 km/h 40.2 km/h 27% 0 mm 601.00 W/m2
16:04 18.3 °C -1 °C 1005.3 hPa WNW 17.7 km/h 37 km/h 27% 0 mm 693.00 W/m2
16:09 18.2 °C -0.6 °C 1005.3 hPa West 24.1 km/h 41.8 km/h 28% 0 mm 691.00 W/m2
16:14 18.3 °C -1.6 °C 1005 hPa WNW 35.4 km/h 41.8 km/h 26% 0 mm 633.00 W/m2
16:19 18.3 °C -1.1 °C 1005.3 hPa West 40.2 km/h 41.8 km/h 27% 0 mm 322.00 W/m2
16:24 18.4 °C -0.9 °C 1005 hPa WSW 49.9 km/h 49.9 km/h 27% 0 mm 649.00 W/m2
16:29 19.2 °C -0.8 °C 1005 hPa West 37 km/h 49.9 km/h 26% 0 mm 652.00 W/m2
16:34 18.9 °C -1.1 °C 1005 hPa WNW 27.4 km/h 49.9 km/h 26% 0 mm 642.00 W/m2
16:39 18.7 °C -1.2 °C 1005 hPa NNW 22.5 km/h 46.7 km/h 26% 0 mm 589.00 W/m2
16:44 18.5 °C -1.4 °C 1005 hPa West 33.8 km/h 45.1 km/h 26% 0 mm 364.00 W/m2
16:49 18.8 °C -1.2 °C 1005 hPa West 29 km/h 46.7 km/h 26% 0 mm 670.00 W/m2
16:54 18.8 °C -1.7 °C 1005 hPa NW 22.5 km/h 46.7 km/h 25% 0 mm 610.00 W/m2
16:59 18.8 °C -1.1 °C 1005 hPa West 35.4 km/h 45.1 km/h 26% 0 mm 564.00 W/m2
17:04 19 °C -0.9 °C 1005 hPa WNW 30.6 km/h 38.6 km/h 26% 0 mm 552.00 W/m2
17:09 18.9 °C -1.1 °C 1005 hPa WNW 30.6 km/h 46.7 km/h 26% 0 mm 538.00 W/m2
17:14 19.1 °C -0.9 °C 1005 hPa WNW 32.2 km/h 46.7 km/h 26% 0 mm 527.00 W/m2
17:19 19 °C -0.9 °C 1005 hPa West 37 km/h 46.7 km/h 26% 0 mm 506.00 W/m2
17:24 18.8 °C -0.6 °C 1005 hPa WNW 38.6 km/h 46.7 km/h 27% 0 mm 519.00 W/m2
17:29 18.9 °C -1.1 °C 1005 hPa WNW 27.4 km/h 46.7 km/h 26% 0 mm 434.00 W/m2
17:34 19 °C -0.9 °C 1005 hPa West 37 km/h 41.8 km/h 26% 0 mm 415.00 W/m2
17:39 18.8 °C -1.1 °C 1005 hPa West 27.4 km/h 43.5 km/h 26% 0 mm 381.00 W/m2
17:44 18.8 °C -1.7 °C 1005 hPa West 35.4 km/h 43.5 km/h 25% 0 mm 520.00 W/m2
17:49 18.7 °C -1.2 °C 1005 hPa West 27.4 km/h 40.2 km/h 26% 0 mm 432.00 W/m2
17:54 18.4 °C -1.4 °C 1005 hPa WNW 30.6 km/h 37 km/h 26% 0 mm 165.00 W/m2
17:59 18.2 °C -1.2 °C 1005 hPa WNW 27.4 km/h 40.2 km/h 27% 0 mm 359.00 W/m2
18:04 18.4 °C -0.9 °C 1005 hPa West 24.1 km/h 40.2 km/h 27% 0 mm 197.00 W/m2
18:09 18.1 °C -0.7 °C 1005 hPa WNW 27.4 km/h 35.4 km/h 28% 0 mm 160.00 W/m2
18:14 17.8 °C -0.9 °C 1005 hPa West 19.3 km/h 33.8 km/h 28% 0 mm 141.00 W/m2
18:19 17.8 °C -0.4 °C 1005 hPa WNW 17.7 km/h 29 km/h 29% 0 mm 258.00 W/m2
18:24 17.9 °C -0.8 °C 1005 hPa West 25.7 km/h 27.4 km/h 28% 0 mm 176.00 W/m2
18:29 17.7 °C -1.6 °C 1005 hPa WNW 14.5 km/h 27.4 km/h 27% 0 mm 86.00 W/m2
18:34 17.4 °C -0.8 °C 1005 hPa NW 27.4 km/h 27.4 km/h 29% 0 mm 148.00 W/m2
18:39 17.9 °C 0.1 °C 1005 hPa West 16.1 km/h 27.4 km/h 30% 0 mm 355.00 W/m2
18:44 18.1 °C -0.2 °C 1005 hPa WSW 24.1 km/h 27.4 km/h 29% 0 mm 116.00 W/m2
18:49 17.8 °C -0.5 °C 1005 hPa WSW 20.9 km/h 30.6 km/h 29% 0 mm 123.00 W/m2
18:54 17.7 °C -0.1 °C 1005 hPa West 20.9 km/h 30.6 km/h 30% 0 mm 123.00 W/m2
18:59 17.7 °C -0.2 °C 1005 hPa West 24.1 km/h 27.4 km/h 30% 0 mm 158.00 W/m2
19:04 17.6 °C -0.2 °C 1005 hPa West 17.7 km/h 27.4 km/h 30% 0 mm 93.00 W/m2
19:09 17.4 °C -0.8 °C 1005 hPa WSW 22.5 km/h 29 km/h 29% 0 mm 65.00 W/m2
19:14 17.3 °C -0.5 °C 1005 hPa West 17.7 km/h 29 km/h 30% 0 mm 56.00 W/m2
19:19 17.1 °C -0.2 °C 1005 hPa WSW 14.5 km/h 27.4 km/h 31% 0 mm 40.00 W/m2
19:24 16.8 °C 0 °C 1005 hPa West 11.3 km/h 20.9 km/h 32% 0 mm 37.00 W/m2
19:29 16.5 °C 0.2 °C 1005 hPa West 9.7 km/h 17.7 km/h 33% 0 mm 32.00 W/m2
19:34 16.3 °C 0 °C 1005 hPa WSW 6.4 km/h 16.1 km/h 33% 0 mm 33.00 W/m2
19:39 16.1 °C 0.2 °C 1005 hPa WSW 6.4 km/h 12.9 km/h 34% 0 mm 25.00 W/m2
19:44 15.9 °C 0.1 °C 1004.6 hPa WSW 4.8 km/h 9.7 km/h 34% 0 mm 18.00 W/m2
19:49 15.7 °C 0.3 °C 1004.6 hPa WSW 3.2 km/h 9.7 km/h 35% 0 mm 16.00 W/m2
19:54 15.6 °C 0.1 °C 1004.6 hPa SW 3.2 km/h 6.4 km/h 35% 0 mm 30.00 W/m2
19:59 15.4 °C 0.4 °C 1005 hPa SW 1.6 km/h 4.8 km/h 36% 0 mm 9.00 W/m2
20:04 15.3 °C 1.1 °C 1004.6 hPa NNE 6.4 km/h 9.7 km/h 38% 0 mm 7.00 W/m2
20:09 14.9 °C 0.7 °C 1004.6 hPa North 1.6 km/h 9.7 km/h 38% 0 mm 7.00 W/m2
20:14 14.7 °C 0.8 °C 1004.6 hPa NNE 6.4 km/h 8 km/h 39% 0 mm 0.00 W/m2
20:19 14.5 °C 0.3 °C 1004.6 hPa NE 8 km/h 8 km/h 38% 0 mm 0.00 W/m2
20:24 14.4 °C -0.1 °C 1004.3 hPa NNE 8 km/h 12.9 km/h 37% 0 mm 0.00 W/m2
20:29 14.3 °C -0.2 °C 1004.3 hPa NE 8 km/h 12.9 km/h 37% 0 mm 0.00 W/m2
20:34 14.2 °C 0.1 °C 1004.6 hPa ENE 4.8 km/h 12.9 km/h 38% 0 mm 0.00 W/m2
20:39 13.9 °C -0.6 °C 1004.3 hPa ENE 8 km/h 11.3 km/h 37% 0 mm 0.00 W/m2
20:44 13.9 °C -0.6 °C 1004.3 hPa ENE 8 km/h 8 km/h 37% 0 mm 0.00 W/m2
20:49 13.8 °C -0.6 °C 1004.3 hPa ENE 8 km/h 11.3 km/h 37% 0 mm 0.00 W/m2
20:54 13.8 °C -0.7 °C 1004.3 hPa ENE 6.4 km/h 11.3 km/h 37% 0 mm 0.00 W/m2
20:59 13.7 °C -0.8 °C 1004.3 hPa ENE 11.3 km/h 12.9 km/h 37% 0 mm 0.00 W/m2
21:04 13.6 °C -0.5 °C 1004.3 hPa East 6.4 km/h 12.9 km/h 38% 0 mm 0.00 W/m2
21:09 13.3 °C -0.1 °C 1004.3 hPa East 11.3 km/h 11.3 km/h 40% 0 mm 0.00 W/m2
21:14 12.9 °C 0 °C 1004.6 hPa East 9.7 km/h 12.9 km/h 41% 0 mm 0.00 W/m2
21:19 12.7 °C -0.3 °C 1004.6 hPa East 9.7 km/h 12.9 km/h 41% 0 mm 0.00 W/m2
21:24 12.6 °C -0.4 °C 1004.3 hPa ENE 8 km/h 12.9 km/h 41% 0 mm 0.00 W/m2
21:29 12.4 °C -0.1 °C 1004.3 hPa East 11.3 km/h 12.9 km/h 42% 0 mm 0.00 W/m2
21:34 12.3 °C 0.1 °C 1004.6 hPa East 11.3 km/h 14.5 km/h 43% 0 mm 0.00 W/m2
21:39 12.2 °C 0.3 °C 1004.6 hPa East 11.3 km/h 14.5 km/h 44% 0 mm 0.00 W/m2
21:44 11.9 °C 0.7 °C 1004.6 hPa SE 6.4 km/h 12.9 km/h 46% 0 mm 0.00 W/m2
21:49 11.7 °C 0.7 °C 1004.6 hPa SE 4.8 km/h 11.3 km/h 47% 0 mm 0.00 W/m2
21:54 11.5 °C 0.6 °C 1004.6 hPa SE 6.4 km/h 8 km/h 47% 0 mm 0.00 W/m2
21:59 11.5 °C 0.6 °C 1004.6 hPa ESE 6.4 km/h 8 km/h 47% 0 mm 0.00 W/m2
22:04 11.4 °C 1.1 °C 1005 hPa ESE 4.8 km/h 8 km/h 49% 0 mm 0.00 W/m2
22:09 11.2 °C 1.1 °C 1005 hPa SE 6.4 km/h 8 km/h 50% 0 mm 0.00 W/m2
22:14 11.1 °C 0.8 °C 1005 hPa SE 8 km/h 9.7 km/h 49% 0 mm 0.00 W/m2
22:19 11.2 °C 0.6 °C 1005 hPa SE 8 km/h 12.9 km/h 48% 0 mm 0.00 W/m2
22:24 11.3 °C 0.4 °C 1004.6 hPa SE 8 km/h 12.9 km/h 47% 0 mm 0.00 W/m2
22:29 11.4 °C 0.5 °C 1004.6 hPa ESE 12.9 km/h 14.5 km/h 47% 0 mm 0.00 W/m2
22:34 11.4 °C 0.5 °C 1005 hPa SE 9.7 km/h 14.5 km/h 47% 0 mm 0.00 W/m2
22:39 11.4 °C 0.5 °C 1005 hPa SE 8 km/h 12.9 km/h 47% 0 mm 0.00 W/m2
22:44 11.4 °C 0.5 °C 1005 hPa SE 4.8 km/h 12.9 km/h 47% 0 mm 0.00 W/m2
22:50 11.4 °C 0.5 °C 1005 hPa ESE 12.9 km/h 12.9 km/h 47% 0 mm 0.00 W/m2
22:54 11.4 °C 0.5 °C 1005 hPa SSE 8 km/h 12.9 km/h 47% 0 mm 0.00 W/m2
22:59 11.6 °C 0.3 °C 1005 hPa SE 9.7 km/h 12.9 km/h 46% 0 mm 0.00 W/m2
23:04 11.7 °C 0.2 °C 1004.6 hPa SSE 4.8 km/h 12.9 km/h 45% 0 mm 0.00 W/m2
23:09 12.2 °C 0.3 °C 1004.6 hPa South 11.3 km/h 17.7 km/h 44% 0 mm 0.00 W/m2
23:14 12.6 °C 0.3 °C 1004.3 hPa SSE 6.4 km/h 17.7 km/h 43% 0 mm 0.00 W/m2
23:19 12.5 °C 0.2 °C 1004.3 hPa SE 8 km/h 11.3 km/h 43% 0 mm 0.00 W/m2
23:24 12.3 °C 0.1 °C 1004.3 hPa SE 9.7 km/h 11.3 km/h 43% 0 mm 0.00 W/m2
23:29 12.1 °C -0.2 °C 1004.3 hPa SSE 9.7 km/h 14.5 km/h 43% 0 mm 0.00 W/m2
23:34 11.8 °C -0.1 °C 1003.9 hPa SSE 12.9 km/h 14.5 km/h 44% 0 mm 0.00 W/m2
23:39 11.6 °C -0.6 °C 1003.6 hPa SSE 16.1 km/h 16.1 km/h 43% 0 mm 0.00 W/m2
23:44 11.4 °C -0.4 °C 1003.6 hPa SSE 12.9 km/h 16.1 km/h 44% 0 mm 0.00 W/m2
23:49 11.2 °C -0.3 °C 1003.6 hPa SSE 9.7 km/h 16.1 km/h 45% 0 mm 0.00 W/m2
23:54 10.9 °C -0.3 °C 1003.6 hPa SE 8 km/h 14.5 km/h 46% 0 mm 0.00 W/m2
Bismarck, North Dakota, USA
Compliments of Weather Underground - 4 mb